Raymond, Georgia
Current Conditions -  °F | °C
As of 9:55 PM on Tuesday 21 Oct 2014 (Local Time) from KCCO Reporting Station
Clear Clear  
Wind Chill: 62°   Ceiling: Unl
Heat Index: 62°   Visibility: 10mi
Dew Point: 51°   Wind: 5mph
Humidity: 69%   Direction: 310°NW
Pressure: 30.02"   Gusts: NA
Location:  33.3877°N, 84.8596°W
Report Text: KCCO 220155Z AUTO 31004KT 10SM CLR 17/11 A3002 RMK AO2 T01650108
Loading
Personal Weather Stations






























Interactive Weather Map New forecast layout! Learn more

10-Day Weather Forecast

Advertisements
Track Severe Weather on mobile